sensor_id;sensor_type;location;lat;lon;timestamp;pressure;altitude;pressure_sealevel;temperature;humidity
9444;BME280;4760;42.148;24.754;2022-09-12T00:06:11;99145.16;;;19.77;100.00
9444;BME280;4760;42.148;24.754;2022-09-12T00:16:24;99147.41;;;19.70;100.00
9444;BME280;4760;42.148;24.754;2022-09-12T00:51:37;99153.59;;;19.39;100.00
9444;BME280;4760;42.148;24.754;2022-09-12T01:38:02;99124.13;;;19.01;100.00
9444;BME280;4760;42.148;24.754;2022-09-12T01:52:02;99122.53;;;19.12;100.00
9444;BME280;4760;42.148;24.754;2022-09-12T02:01:59;99119.75;;;18.87;100.00
9444;BME280;4760;42.148;24.754;2022-09-12T02:26:35;99114.38;;;18.67;100.00
9444;BME280;4760;42.148;24.754;2022-09-12T02:36:32;99118.84;;;18.52;100.00
9444;BME280;4760;42.148;24.754;2022-09-12T02:46:33;99108.16;;;18.34;100.00
9444;BME280;4760;42.148;24.754;2022-09-12T02:56:27;99105.69;;;18.36;100.00
9444;BME280;4760;42.148;24.754;2022-09-12T03:17:25;99097.22;;;18.40;100.00
9444;BME280;4760;42.148;24.754;2022-09-12T03:30:57;99109.81;;;18.32;100.00
9444;BME280;4760;42.148;24.754;2022-09-12T03:40:47;99125.50;;;18.13;100.00
9444;BME280;4760;42.148;24.754;2022-09-12T03:50:37;99122.28;;;18.15;100.00
9444;BME280;4760;42.148;24.754;2022-09-12T04:00:27;99117.38;;;17.90;100.00
9444;BME280;4760;42.148;24.754;2022-09-12T04:10:15;99105.69;;;17.95;100.00
9444;BME280;4760;42.148;24.754;2022-09-12T04:20:08;99143.91;;;18.39;100.00
9444;BME280;4760;42.148;24.754;2022-09-12T04:30:19;99159.16;;;20.12;100.00
9444;BME280;4760;42.148;24.754;2022-09-12T04:44:16;99164.97;;;20.92;100.00
9444;BME280;4760;42.148;24.754;2022-09-12T05:12:30;99181.72;;;23.26;100.00
9444;BME280;4760;42.148;24.754;2022-09-12T05:26:26;99231.78;;;24.74;100.00
9444;BME280;4760;42.148;24.754;2022-09-12T05:32:35;99208.97;;;25.16;100.00
9444;BME280;4760;42.148;24.754;2022-09-12T05:53:27;99236.03;;;25.72;97.25
9444;BME280;4760;42.148;24.754;2022-09-12T06:06:34;99229.19;;;25.58;84.70
9444;BME280;4760;42.148;24.754;2022-09-12T06:16:24;99216.19;;;26.21;79.16
9444;BME280;4760;42.148;24.754;2022-09-12T06:26:16;99214.78;;;26.78;72.79
9444;BME280;4760;42.148;24.754;2022-09-12T06:43:29;99194.38;;;27.51;69.97
9444;BME280;4760;42.148;24.754;2022-09-12T06:53:18;99223.69;;;27.85;68.57
9444;BME280;4760;42.148;24.754;2022-09-12T07:03:32;99215.16;;;27.79;69.45
9444;BME280;4760;42.148;24.754;2022-09-12T07:13:22;99219.69;;;28.08;66.80
9444;BME280;4760;42.148;24.754;2022-09-12T07:23:12;99225.13;;;28.12;66.26
9444;BME280;4760;42.148;24.754;2022-09-12T07:33:25;99217.19;;;27.79;63.63
9444;BME280;4760;42.148;24.754;2022-09-12T07:46:54;99172.94;;;27.13;63.18
9444;BME280;4760;42.148;24.754;2022-09-12T07:56:43;99208.94;;;27.07;66.47
9444;BME280;4760;42.148;24.754;2022-09-12T08:06:33;99211.41;;;26.73;67.11
9444;BME280;4760;42.148;24.754;2022-09-12T08:16:25;99193.22;;;27.06;66.60
9444;BME280;4760;42.148;24.754;2022-09-12T08:26:16;99204.91;;;27.19;65.82
9444;BME280;4760;42.148;24.754;2022-09-12T08:36:30;99197.41;;;27.16;63.13
9444;BME280;4760;42.148;24.754;2022-09-12T08:46:22;99194.78;;;27.07;60.35
9444;BME280;4760;42.148;24.754;2022-09-12T08:56:15;99175.78;;;27.13;62.28
9444;BME280;4760;42.148;24.754;2022-09-12T09:06:34;99175.84;;;27.18;62.09
9444;BME280;4760;42.148;24.754;2022-09-12T09:16:54;99138.00;;;26.85;60.46
9444;BME280;4760;42.148;24.754;2022-09-12T09:27:11;99167.94;;;26.97;59.46
9444;BME280;4760;42.148;24.754;2022-09-12T09:37:27;99158.06;;;27.18;60.81
9444;BME280;4760;42.148;24.754;2022-09-12T09:47:17;99155.75;;;27.53;58.87
9444;BME280;4760;42.148;24.754;2022-09-12T10:07:51;99154.03;;;27.30;54.97
9444;BME280;4760;42.148;24.754;2022-09-12T10:17:41;99142.84;;;27.47;58.05
9444;BME280;4760;42.148;24.754;2022-09-12T10:27:31;99130.59;;;26.93;59.66
9444;BME280;4760;42.148;24.754;2022-09-12T11:10:33;99132.25;;;27.90;55.64
9444;BME280;4760;42.148;24.754;2022-09-12T11:27:56;99131.34;;;27.25;54.19
9444;BME280;4760;42.148;24.754;2022-09-12T11:42:20;99110.53;;;27.70;52.84
9444;BME280;4760;42.148;24.754;2022-09-12T11:52:18;99121.94;;;27.44;53.23
9444;BME280;4760;42.148;24.754;2022-09-12T12:09:29;99106.41;;;27.71;55.99
9444;BME280;4760;42.148;24.754;2022-09-12T12:19:34;99093.56;;;27.28;53.36
9444;BME280;4760;42.148;24.754;2022-09-12T12:29:42;99084.38;;;27.01;56.17
9444;BME280;4760;42.148;24.754;2022-09-12T13:07:42;99095.94;;;27.03;53.78
9444;BME280;4760;42.148;24.754;2022-09-12T13:17:37;99095.94;;;26.46;55.66
9444;BME280;4760;42.148;24.754;2022-09-12T13:27:26;99087.09;;;26.33;57.23
9444;BME280;4760;42.148;24.754;2022-09-12T13:48:32;99077.94;;;26.44;58.88
9444;BME280;4760;42.148;24.754;2022-09-12T13:58:23;99091.03;;;26.41;55.67
9444;BME280;4760;42.148;24.754;2022-09-12T14:08:16;99086.50;;;26.49;57.81
9444;BME280;4760;42.148;24.754;2022-09-12T14:21:48;99081.38;;;26.27;55.13
9444;BME280;4760;42.148;24.754;2022-09-12T14:57:14;99100.50;;;25.72;59.92
9444;BME280;4760;42.148;24.754;2022-09-12T15:18:07;99108.00;;;25.40;61.24
9444;BME280;4760;42.148;24.754;2022-09-12T15:28:20;99110.41;;;25.12;61.57
9444;BME280;4760;42.148;24.754;2022-09-12T15:38:35;99116.69;;;24.72;64.15
9444;BME280;4760;42.148;24.754;2022-09-12T15:48:24;99123.75;;;24.53;65.09
9444;BME280;4760;42.148;24.754;2022-09-12T15:58:16;99130.19;;;24.39;64.21
9444;BME280;4760;42.148;24.754;2022-09-12T16:08:30;99132.31;;;24.06;66.79
9444;BME280;4760;42.148;24.754;2022-09-12T16:18:18;99135.75;;;23.86;68.65
9444;BME280;4760;42.148;24.754;2022-09-12T16:38:40;99133.94;;;23.17;76.47
9444;BME280;4760;42.148;24.754;2022-09-12T16:48:28;99133.28;;;22.89;78.83
9444;BME280;4760;42.148;24.754;2022-09-12T16:58:19;99146.28;;;22.69;76.78
9444;BME280;4760;42.148;24.754;2022-09-12T17:08:33;99151.00;;;22.53;78.38
9444;BME280;4760;42.148;24.754;2022-09-12T17:36:22;99184.72;;;22.26;79.63
9444;BME280;4760;42.148;24.754;2022-09-12T17:46:35;99181.28;;;22.04;78.87
9444;BME280;4760;42.148;24.754;2022-09-12T17:56:30;99191.53;;;21.89;76.38
9444;BME280;4760;42.148;24.754;2022-09-12T18:10:26;99199.59;;;21.68;80.67
9444;BME280;4760;42.148;24.754;2022-09-12T18:20:19;99206.56;;;21.55;80.96
9444;BME280;4760;42.148;24.754;2022-09-12T18:30:33;99223.22;;;21.49;79.74
9444;BME280;4760;42.148;24.754;2022-09-12T18:40:24;99212.84;;;21.28;80.10
9444;BME280;4760;42.148;24.754;2022-09-12T19:16:25;99225.19;;;21.09;80.95
9444;BME280;4760;42.148;24.754;2022-09-12T19:26:16;99223.13;;;21.00;82.71
9444;BME280;4760;42.148;24.754;2022-09-12T19:36:33;99228.88;;;20.97;81.99
9444;BME280;4760;42.148;24.754;2022-09-12T19:46:23;99221.66;;;20.87;82.92
9444;BME280;4760;42.148;24.754;2022-09-12T19:56:18;99213.56;;;20.89;82.95
9444;BME280;4760;42.148;24.754;2022-09-12T20:06:07;99230.81;;;20.87;85.06
9444;BME280;4760;42.148;24.754;2022-09-12T20:16:23;99232.72;;;20.68;85.25
9444;BME280;4760;42.148;24.754;2022-09-12T20:26:15;99233.38;;;20.72;85.89
9444;BME280;4760;42.148;24.754;2022-09-12T20:50:23;99251.91;;;20.36;87.72
9444;BME280;4760;42.148;24.754;2022-09-12T21:00:37;99252.63;;;20.14;88.82
9444;BME280;4760;42.148;24.754;2022-09-12T21:06:45;99252.78;;;19.98;91.51
9444;BME280;4760;42.148;24.754;2022-09-12T21:27:37;99240.66;;;19.54;93.82
9444;BME280;4760;42.148;24.754;2022-09-12T21:37:25;99242.09;;;19.71;93.50
9444;BME280;4760;42.148;24.754;2022-09-12T21:47:16;99253.72;;;19.45;95.89
9444;BME280;4760;42.148;24.754;2022-09-12T21:57:30;99245.16;;;19.23;97.96
9444;BME280;4760;42.148;24.754;2022-09-12T22:04:05;99249.66;;;19.20;98.26
9444;BME280;4760;42.148;24.754;2022-09-12T22:13:53;99241.94;;;19.12;99.59
9444;BME280;4760;42.148;24.754;2022-09-12T22:27:24;99242.38;;;18.98;100.00
9444;BME280;4760;42.148;24.754;2022-09-12T22:37:16;99241.44;;;18.88;100.00
9444;BME280;4760;42.148;24.754;2022-09-12T22:47:33;99227.94;;;18.99;99.32
9444;BME280;4760;42.148;24.754;2022-09-12T22:57:20;99217.06;;;18.47;100.00
9444;BME280;4760;42.148;24.754;2022-09-12T23:07:34;99218.16;;;18.49;100.00
9444;BME280;4760;42.148;24.754;2022-09-12T23:21:28;99224.84;;;18.39;100.00
9444;BME280;4760;42.148;24.754;2022-09-12T23:31:18;99211.69;;;18.40;100.00
9444;BME280;4760;42.148;24.754;2022-09-12T23:41:30;99208.97;;;18.53;98.92
9444;BME280;4760;42.148;24.754;2022-09-12T23:51:19;99218.50;;;18.68;95.57
